sensor_id;sensor_type;location;lat;lon;timestamp;P1;durP1;ratioP1;P2;durP2;ratioP2
18360;SDS011;9308;48.550;9.108;2023-07-29T00:00:52;4.00;;;3.53;;
18360;SDS011;9308;48.550;9.108;2023-07-29T00:03:18;8.23;;;7.63;;
18360;SDS011;9308;48.550;9.108;2023-07-29T00:05:43;9.77;;;9.07;;
18360;SDS011;9308;48.550;9.108;2023-07-29T00:08:09;8.40;;;7.83;;
18360;SDS011;9308;48.550;9.108;2023-07-29T00:10:37;5.90;;;5.50;;
18360;SDS011;9308;48.550;9.108;2023-07-29T00:13:04;6.17;;;5.67;;
18360;SDS011;9308;48.550;9.108;2023-07-29T00:15:30;6.37;;;5.83;;
18360;SDS011;9308;48.550;9.108;2023-07-29T00:17:56;4.97;;;3.60;;
18360;SDS011;9308;48.550;9.108;2023-07-29T00:20:21;4.57;;;3.13;;
18360;SDS011;9308;48.550;9.108;2023-07-29T00:22:46;3.50;;;3.20;;
18360;SDS011;9308;48.550;9.108;2023-07-29T00:25:14;4.93;;;2.70;;
18360;SDS011;9308;48.550;9.108;2023-07-29T00:27:41;4.07;;;2.90;;
18360;SDS011;9308;48.550;9.108;2023-07-29T00:30:07;2.87;;;2.67;;
18360;SDS011;9308;48.550;9.108;2023-07-29T00:32:32;3.90;;;3.50;;
18360;SDS011;9308;48.550;9.108;2023-07-29T00:34:58;2.73;;;2.60;;
18360;SDS011;9308;48.550;9.108;2023-07-29T00:37:26;2.60;;;2.40;;
18360;SDS011;9308;48.550;9.108;2023-07-29T00:39:51;2.63;;;2.43;;
18360;SDS011;9308;48.550;9.108;2023-07-29T00:42:17;2.70;;;2.50;;
18360;SDS011;9308;48.550;9.108;2023-07-29T00:44:45;3.60;;;2.43;;
18360;SDS011;9308;48.550;9.108;2023-07-29T00:47:10;2.90;;;2.43;;
18360;SDS011;9308;48.550;9.108;2023-07-29T00:49:36;2.60;;;2.40;;
18360;SDS011;9308;48.550;9.108;2023-07-29T00:52:02;3.30;;;3.00;;
18360;SDS011;9308;48.550;9.108;2023-07-29T00:54:28;4.17;;;3.10;;
18360;SDS011;9308;48.550;9.108;2023-07-29T00:56:53;3.43;;;2.57;;
18360;SDS011;9308;48.550;9.108;2023-07-29T00:59:19;3.03;;;2.70;;
18360;SDS011;9308;48.550;9.108;2023-07-29T01:01:44;3.87;;;2.70;;
18360;SDS011;9308;48.550;9.108;2023-07-29T01:04:10;2.60;;;2.40;;
18360;SDS011;9308;48.550;9.108;2023-07-29T01:06:43;3.43;;;2.37;;
18360;SDS011;9308;48.550;9.108;2023-07-29T01:15:10;3.30;;;2.20;;
18360;SDS011;9308;48.550;9.108;2023-07-29T01:17:42;2.13;;;1.93;;
18360;SDS011;9308;48.550;9.108;2023-07-29T01:20:14;2.03;;;1.93;;
18360;SDS011;9308;48.550;9.108;2023-07-29T01:22:40;2.10;;;2.00;;
18360;SDS011;9308;48.550;9.108;2023-07-29T01:25:06;2.40;;;2.23;;
18360;SDS011;9308;48.550;9.108;2023-07-29T01:27:32;6.30;;;2.50;;
18360;SDS011;9308;48.550;9.108;2023-07-29T01:29:58;2.83;;;2.00;;
18360;SDS011;9308;48.550;9.108;2023-07-29T01:35:03;2.47;;;2.27;;
18360;SDS011;9308;48.550;9.108;2023-07-29T01:37:44;3.93;;;2.80;;
18360;SDS011;9308;48.550;9.108;2023-07-29T01:40:14;3.17;;;2.17;;
18360;SDS011;9308;48.550;9.108;2023-07-29T01:42:40;2.57;;;2.33;;
18360;SDS011;9308;48.550;9.108;2023-07-29T01:45:06;2.80;;;2.30;;
18360;SDS011;9308;48.550;9.108;2023-07-29T01:47:32;3.03;;;2.60;;
18360;SDS011;9308;48.550;9.108;2023-07-29T01:49:57;2.47;;;2.27;;
18360;SDS011;9308;48.550;9.108;2023-07-29T01:52:23;2.63;;;2.30;;
18360;SDS011;9308;48.550;9.108;2023-07-29T01:54:48;2.37;;;2.13;;
18360;SDS011;9308;48.550;9.108;2023-07-29T01:57:13;3.00;;;2.30;;
18360;SDS011;9308;48.550;9.108;2023-07-29T01:59:39;2.97;;;2.13;;
18360;SDS011;9308;48.550;9.108;2023-07-29T02:02:05;2.37;;;2.17;;
18360;SDS011;9308;48.550;9.108;2023-07-29T02:04:31;2.20;;;2.10;;
18360;SDS011;9308;48.550;9.108;2023-07-29T02:06:56;2.23;;;2.10;;
18360;SDS011;9308;48.550;9.108;2023-07-29T02:09:22;2.33;;;2.13;;
18360;SDS011;9308;48.550;9.108;2023-07-29T02:11:47;2.20;;;2.00;;
18360;SDS011;9308;48.550;9.108;2023-07-29T02:14:12;2.53;;;2.33;;
18360;SDS011;9308;48.550;9.108;2023-07-29T02:16:38;2.83;;;2.53;;
18360;SDS011;9308;48.550;9.108;2023-07-29T02:19:04;2.50;;;2.30;;
18360;SDS011;9308;48.550;9.108;2023-07-29T02:21:29;2.10;;;2.00;;
18360;SDS011;9308;48.550;9.108;2023-07-29T02:23:55;2.50;;;2.30;;
18360;SDS011;9308;48.550;9.108;2023-07-29T02:26:20;2.03;;;1.87;;
18360;SDS011;9308;48.550;9.108;2023-07-29T02:28:46;2.20;;;2.10;;
18360;SDS011;9308;48.550;9.108;2023-07-29T02:31:15;2.90;;;2.40;;
18360;SDS011;9308;48.550;9.108;2023-07-29T02:33:43;2.70;;;2.50;;
18360;SDS011;9308;48.550;9.108;2023-07-29T02:36:09;2.20;;;2.10;;
18360;SDS011;9308;48.550;9.108;2023-07-29T02:38:36;2.93;;;2.27;;
18360;SDS011;9308;48.550;9.108;2023-07-29T02:41:01;2.03;;;1.93;;
18360;SDS011;9308;48.550;9.108;2023-07-29T02:43:27;2.90;;;2.60;;
18360;SDS011;9308;48.550;9.108;2023-07-29T02:45:52;2.03;;;1.90;;
18360;SDS011;9308;48.550;9.108;2023-07-29T02:48:18;2.50;;;2.33;;
18360;SDS011;9308;48.550;9.108;2023-07-29T02:50:43;2.33;;;2.13;;
18360;SDS011;9308;48.550;9.108;2023-07-29T02:53:09;2.40;;;2.00;;
18360;SDS011;9308;48.550;9.108;2023-07-29T02:55:35;2.93;;;2.00;;
18360;SDS011;9308;48.550;9.108;2023-07-29T02:58:00;2.47;;;2.00;;
18360;SDS011;9308;48.550;9.108;2023-07-29T03:00:25;2.40;;;2.20;;
18360;SDS011;9308;48.550;9.108;2023-07-29T03:02:51;2.73;;;2.53;;
18360;SDS011;9308;48.550;9.108;2023-07-29T03:05:16;3.87;;;2.50;;
18360;SDS011;9308;48.550;9.108;2023-07-29T03:07:42;2.30;;;2.10;;
18360;SDS011;9308;48.550;9.108;2023-07-29T03:10:08;2.50;;;2.30;;
18360;SDS011;9308;48.550;9.108;2023-07-29T03:12:34;3.07;;;2.27;;
18360;SDS011;9308;48.550;9.108;2023-07-29T03:14:59;3.87;;;1.93;;
18360;SDS011;9308;48.550;9.108;2023-07-29T03:17:25;2.63;;;2.40;;
18360;SDS011;9308;48.550;9.108;2023-07-29T03:19:51;2.27;;;2.07;;
18360;SDS011;9308;48.550;9.108;2023-07-29T03:22:17;2.10;;;2.00;;
18360;SDS011;9308;48.550;9.108;2023-07-29T03:24:42;2.67;;;2.10;;
18360;SDS011;9308;48.550;9.108;2023-07-29T03:27:08;2.27;;;2.17;;
18360;SDS011;9308;48.550;9.108;2023-07-29T03:29:35;2.83;;;2.50;;
18360;SDS011;9308;48.550;9.108;2023-07-29T03:32:00;2.50;;;2.20;;
18360;SDS011;9308;48.550;9.108;2023-07-29T03:34:26;2.80;;;2.53;;
18360;SDS011;9308;48.550;9.108;2023-07-29T03:36:51;2.30;;;2.20;;
18360;SDS011;9308;48.550;9.108;2023-07-29T03:39:17;2.23;;;2.13;;
18360;SDS011;9308;48.550;9.108;2023-07-29T03:41:42;2.63;;;2.53;;
18360;SDS011;9308;48.550;9.108;2023-07-29T03:44:08;2.40;;;2.20;;
18360;SDS011;9308;48.550;9.108;2023-07-29T03:46:33;2.27;;;2.03;;
18360;SDS011;9308;48.550;9.108;2023-07-29T03:48:59;2.80;;;2.30;;
18360;SDS011;9308;48.550;9.108;2023-07-29T03:51:24;2.27;;;2.07;;
18360;SDS011;9308;48.550;9.108;2023-07-29T03:53:50;2.77;;;2.40;;
18360;SDS011;9308;48.550;9.108;2023-07-29T03:56:15;3.00;;;2.60;;
18360;SDS011;9308;48.550;9.108;2023-07-29T03:58:41;2.60;;;2.20;;
18360;SDS011;9308;48.550;9.108;2023-07-29T04:01:08;5.07;;;2.70;;
18360;SDS011;9308;48.550;9.108;2023-07-29T04:03:34;2.23;;;2.10;;
18360;SDS011;9308;48.550;9.108;2023-07-29T04:06:00;2.43;;;2.33;;
18360;SDS011;9308;48.550;9.108;2023-07-29T04:08:26;2.37;;;2.23;;
18360;SDS011;9308;48.550;9.108;2023-07-29T04:10:52;2.23;;;2.13;;
18360;SDS011;9308;48.550;9.108;2023-07-29T04:13:17;4.03;;;2.60;;
18360;SDS011;9308;48.550;9.108;2023-07-29T04:15:43;2.10;;;1.87;;
18360;SDS011;9308;48.550;9.108;2023-07-29T04:18:08;2.80;;;2.30;;
18360;SDS011;9308;48.550;9.108;2023-07-29T04:20:33;2.40;;;2.20;;
18360;SDS011;9308;48.550;9.108;2023-07-29T04:23:00;2.70;;;2.50;;
18360;SDS011;9308;48.550;9.108;2023-07-29T04:25:25;2.57;;;2.33;;
18360;SDS011;9308;48.550;9.108;2023-07-29T04:27:50;2.40;;;2.30;;
18360;SDS011;9308;48.550;9.108;2023-07-29T04:30:16;2.63;;;2.43;;
18360;SDS011;9308;48.550;9.108;2023-07-29T04:32:41;2.50;;;2.10;;
18360;SDS011;9308;48.550;9.108;2023-07-29T04:35:10;3.53;;;2.13;;
18360;SDS011;9308;48.550;9.108;2023-07-29T04:37:35;2.87;;;2.67;;
18360;SDS011;9308;48.550;9.108;2023-07-29T04:40:01;2.83;;;2.63;;
18360;SDS011;9308;48.550;9.108;2023-07-29T04:42:27;4.50;;;2.50;;
18360;SDS011;9308;48.550;9.108;2023-07-29T04:44:52;2.60;;;2.40;;
18360;SDS011;9308;48.550;9.108;2023-07-29T04:47:17;2.67;;;2.47;;
18360;SDS011;9308;48.550;9.108;2023-07-29T04:49:43;2.43;;;2.23;;
18360;SDS011;9308;48.550;9.108;2023-07-29T04:52:08;3.03;;;2.50;;
18360;SDS011;9308;48.550;9.108;2023-07-29T04:54:34;3.83;;;2.70;;
18360;SDS011;9308;48.550;9.108;2023-07-29T04:56:59;2.40;;;2.20;;
18360;SDS011;9308;48.550;9.108;2023-07-29T04:59:25;2.83;;;2.47;;
18360;SDS011;9308;48.550;9.108;2023-07-29T05:01:50;2.40;;;2.20;;
18360;SDS011;9308;48.550;9.108;2023-07-29T05:04:15;2.77;;;2.50;;
18360;SDS011;9308;48.550;9.108;2023-07-29T05:06:41;4.90;;;3.60;;
18360;SDS011;9308;48.550;9.108;2023-07-29T05:09:16;5.20;;;3.40;;
18360;SDS011;9308;48.550;9.108;2023-07-29T05:11:43;5.03;;;3.40;;
18360;SDS011;9308;48.550;9.108;2023-07-29T05:14:13;4.10;;;3.20;;
18360;SDS011;9308;48.550;9.108;2023-07-29T05:16:38;2.60;;;2.40;;
18360;SDS011;9308;48.550;9.108;2023-07-29T05:19:04;3.07;;;2.30;;
18360;SDS011;9308;48.550;9.108;2023-07-29T05:21:29;3.70;;;2.10;;
18360;SDS011;9308;48.550;9.108;2023-07-29T05:23:55;2.73;;;1.80;;
18360;SDS011;9308;48.550;9.108;2023-07-29T05:26:21;1.73;;;1.63;;
18360;SDS011;9308;48.550;9.108;2023-07-29T05:28:47;1.90;;;1.80;;
18360;SDS011;9308;48.550;9.108;2023-07-29T05:31:12;3.30;;;2.27;;
18360;SDS011;9308;48.550;9.108;2023-07-29T05:33:38;2.50;;;1.70;;
18360;SDS011;9308;48.550;9.108;2023-07-29T05:36:04;3.70;;;2.23;;
18360;SDS011;9308;48.550;9.108;2023-07-29T05:38:30;2.37;;;2.00;;
18360;SDS011;9308;48.550;9.108;2023-07-29T05:40:55;2.53;;;2.20;;
18360;SDS011;9308;48.550;9.108;2023-07-29T05:43:21;4.10;;;2.90;;
18360;SDS011;9308;48.550;9.108;2023-07-29T05:45:46;2.83;;;2.63;;
18360;SDS011;9308;48.550;9.108;2023-07-29T05:48:12;2.37;;;2.17;;
18360;SDS011;9308;48.550;9.108;2023-07-29T05:50:37;2.70;;;2.50;;
18360;SDS011;9308;48.550;9.108;2023-07-29T05:53:03;2.80;;;2.60;;
18360;SDS011;9308;48.550;9.108;2023-07-29T05:55:28;4.10;;;3.67;;
18360;SDS011;9308;48.550;9.108;2023-07-29T05:57:54;3.73;;;3.43;;
18360;SDS011;9308;48.550;9.108;2023-07-29T06:00:20;3.73;;;3.43;;
18360;SDS011;9308;48.550;9.108;2023-07-29T06:02:45;5.10;;;3.30;;
18360;SDS011;9308;48.550;9.108;2023-07-29T06:05:11;3.73;;;3.43;;
18360;SDS011;9308;48.550;9.108;2023-07-29T06:07:37;3.60;;;3.30;;
18360;SDS011;9308;48.550;9.108;2023-07-29T06:10:03;4.03;;;3.53;;
18360;SDS011;9308;48.550;9.108;2023-07-29T06:12:28;4.23;;;3.30;;
18360;SDS011;9308;48.550;9.108;2023-07-29T06:14:54;3.70;;;3.40;;
18360;SDS011;9308;48.550;9.108;2023-07-29T06:17:19;4.03;;;3.60;;
18360;SDS011;9308;48.550;9.108;2023-07-29T06:19:45;4.07;;;3.67;;
18360;SDS011;9308;48.550;9.108;2023-07-29T06:22:10;5.30;;;3.43;;
18360;SDS011;9308;48.550;9.108;2023-07-29T06:24:35;4.63;;;4.03;;
18360;SDS011;9308;48.550;9.108;2023-07-29T06:27:01;4.20;;;3.90;;
18360;SDS011;9308;48.550;9.108;2023-07-29T06:29:27;3.80;;;3.50;;
18360;SDS011;9308;48.550;9.108;2023-07-29T06:31:52;4.90;;;4.33;;
18360;SDS011;9308;48.550;9.108;2023-07-29T06:34:18;4.60;;;4.20;;
18360;SDS011;9308;48.550;9.108;2023-07-29T06:36:43;4.90;;;4.17;;
18360;SDS011;9308;48.550;9.108;2023-07-29T06:39:09;4.40;;;4.10;;
18360;SDS011;9308;48.550;9.108;2023-07-29T06:41:34;3.90;;;3.60;;
18360;SDS011;9308;48.550;9.108;2023-07-29T06:44:00;4.37;;;3.63;;
18360;SDS011;9308;48.550;9.108;2023-07-29T06:46:26;4.30;;;3.17;;
18360;SDS011;9308;48.550;9.108;2023-07-29T06:48:51;3.57;;;3.27;;
18360;SDS011;9308;48.550;9.108;2023-07-29T06:51:16;3.60;;;3.37;;
18360;SDS011;9308;48.550;9.108;2023-07-29T06:53:42;4.40;;;3.80;;
18360;SDS011;9308;48.550;9.108;2023-07-29T06:56:07;3.73;;;3.43;;
18360;SDS011;9308;48.550;9.108;2023-07-29T06:58:34;5.53;;;4.33;;
18360;SDS011;9308;48.550;9.108;2023-07-29T07:01:00;4.63;;;4.23;;
18360;SDS011;9308;48.550;9.108;2023-07-29T07:03:25;5.33;;;4.10;;
18360;SDS011;9308;48.550;9.108;2023-07-29T07:05:51;4.20;;;3.90;;
18360;SDS011;9308;48.550;9.108;2023-07-29T07:08:16;4.50;;;4.10;;
18360;SDS011;9308;48.550;9.108;2023-07-29T07:10:41;4.30;;;3.90;;
18360;SDS011;9308;48.550;9.108;2023-07-29T07:13:07;3.60;;;3.30;;
18360;SDS011;9308;48.550;9.108;2023-07-29T07:15:32;3.33;;;3.07;;
18360;SDS011;9308;48.550;9.108;2023-07-29T07:20:25;3.23;;;3.03;;
18360;SDS011;9308;48.550;9.108;2023-07-29T07:22:51;3.37;;;3.00;;
18360;SDS011;9308;48.550;9.108;2023-07-29T07:25:16;4.00;;;3.50;;
18360;SDS011;9308;48.550;9.108;2023-07-29T07:27:41;8.60;;;3.83;;
18360;SDS011;9308;48.550;9.108;2023-07-29T07:30:07;4.37;;;4.07;;
18360;SDS011;9308;48.550;9.108;2023-07-29T07:32:33;6.57;;;3.97;;
18360;SDS011;9308;48.550;9.108;2023-07-29T07:34:58;3.80;;;3.50;;
18360;SDS011;9308;48.550;9.108;2023-07-29T07:37:24;4.00;;;3.60;;
18360;SDS011;9308;48.550;9.108;2023-07-29T07:39:49;4.60;;;4.30;;
18360;SDS011;9308;48.550;9.108;2023-07-29T07:42:15;4.50;;;3.93;;
18360;SDS011;9308;48.550;9.108;2023-07-29T07:44:40;5.33;;;4.67;;
18360;SDS011;9308;48.550;9.108;2023-07-29T07:47:05;4.70;;;4.30;;
18360;SDS011;9308;48.550;9.108;2023-07-29T07:49:31;4.70;;;4.30;;
18360;SDS011;9308;48.550;9.108;2023-07-29T07:51:56;3.83;;;3.53;;
18360;SDS011;9308;48.550;9.108;2023-07-29T07:54:22;5.23;;;4.73;;
18360;SDS011;9308;48.550;9.108;2023-07-29T07:56:47;6.23;;;4.43;;
18360;SDS011;9308;48.550;9.108;2023-07-29T07:59:13;4.23;;;3.83;;
18360;SDS011;9308;48.550;9.108;2023-07-29T08:01:38;4.67;;;3.73;;
18360;SDS011;9308;48.550;9.108;2023-07-29T08:04:04;4.37;;;3.97;;
18360;SDS011;9308;48.550;9.108;2023-07-29T08:06:30;4.23;;;3.93;;
18360;SDS011;9308;48.550;9.108;2023-07-29T08:08:55;5.33;;;4.30;;
18360;SDS011;9308;48.550;9.108;2023-07-29T08:11:21;4.40;;;4.00;;
18360;SDS011;9308;48.550;9.108;2023-07-29T08:13:46;3.67;;;3.40;;
18360;SDS011;9308;48.550;9.108;2023-07-29T08:16:12;4.37;;;3.97;;
18360;SDS011;9308;48.550;9.108;2023-07-29T08:18:38;4.13;;;3.73;;
18360;SDS011;9308;48.550;9.108;2023-07-29T08:21:03;4.90;;;3.93;;
18360;SDS011;9308;48.550;9.108;2023-07-29T08:23:37;3.70;;;3.40;;
18360;SDS011;9308;48.550;9.108;2023-07-29T08:26:04;3.90;;;3.23;;
18360;SDS011;9308;48.550;9.108;2023-07-29T08:28:37;3.97;;;3.67;;
18360;SDS011;9308;48.550;9.108;2023-07-29T08:31:04;3.80;;;3.40;;
18360;SDS011;9308;48.550;9.108;2023-07-29T08:33:30;3.63;;;3.20;;
18360;SDS011;9308;48.550;9.108;2023-07-29T08:35:59;3.90;;;3.50;;
18360;SDS011;9308;48.550;9.108;2023-07-29T08:38:24;4.93;;;3.40;;
18360;SDS011;9308;48.550;9.108;2023-07-29T08:43:41;3.50;;;3.20;;
18360;SDS011;9308;48.550;9.108;2023-07-29T08:46:12;3.90;;;3.60;;
18360;SDS011;9308;48.550;9.108;2023-07-29T08:48:42;4.00;;;3.60;;
18360;SDS011;9308;48.550;9.108;2023-07-29T08:51:11;4.03;;;3.63;;
18360;SDS011;9308;48.550;9.108;2023-07-29T08:53:38;3.77;;;3.33;;
18360;SDS011;9308;48.550;9.108;2023-07-29T08:56:04;3.57;;;3.27;;
18360;SDS011;9308;48.550;9.108;2023-07-29T08:58:31;4.00;;;3.20;;
18360;SDS011;9308;48.550;9.108;2023-07-29T09:00:57;3.80;;;3.50;;
18360;SDS011;9308;48.550;9.108;2023-07-29T09:03:23;3.80;;;3.50;;
18360;SDS011;9308;48.550;9.108;2023-07-29T09:05:48;3.60;;;3.30;;
18360;SDS011;9308;48.550;9.108;2023-07-29T09:08:14;4.27;;;3.87;;
18360;SDS011;9308;48.550;9.108;2023-07-29T09:10:40;3.50;;;3.20;;
18360;SDS011;9308;48.550;9.108;2023-07-29T09:13:06;3.43;;;3.20;;
18360;SDS011;9308;48.550;9.108;2023-07-29T09:15:34;3.53;;;3.23;;
18360;SDS011;9308;48.550;9.108;2023-07-29T09:18:10;3.23;;;3.03;;
18360;SDS011;9308;48.550;9.108;2023-07-29T09:20:36;2.90;;;2.70;;
18360;SDS011;9308;48.550;9.108;2023-07-29T09:23:02;2.90;;;2.70;;
18360;SDS011;9308;48.550;9.108;2023-07-29T09:25:29;3.10;;;2.87;;
18360;SDS011;9308;48.550;9.108;2023-07-29T09:27:58;3.70;;;3.40;;
18360;SDS011;9308;48.550;9.108;2023-07-29T09:30:27;3.40;;;3.17;;
18360;SDS011;9308;48.550;9.108;2023-07-29T09:32:56;3.53;;;3.23;;
18360;SDS011;9308;48.550;9.108;2023-07-29T09:35:23;3.70;;;3.40;;
18360;SDS011;9308;48.550;9.108;2023-07-29T09:37:50;4.40;;;3.23;;
18360;SDS011;9308;48.550;9.108;2023-07-29T09:40:16;3.37;;;3.10;;
18360;SDS011;9308;48.550;9.108;2023-07-29T09:42:49;3.70;;;2.80;;
18360;SDS011;9308;48.550;9.108;2023-07-29T09:45:22;3.60;;;3.00;;
18360;SDS011;9308;48.550;9.108;2023-07-29T09:47:49;3.30;;;3.03;;
18360;SDS011;9308;48.550;9.108;2023-07-29T09:50:15;3.43;;;3.10;;
18360;SDS011;9308;48.550;9.108;2023-07-29T09:52:41;3.37;;;3.07;;
18360;SDS011;9308;48.550;9.108;2023-07-29T09:55:09;5.60;;;3.47;;
18360;SDS011;9308;48.550;9.108;2023-07-29T09:57:38;3.27;;;2.77;;
18360;SDS011;9308;48.550;9.108;2023-07-29T10:00:05;3.80;;;2.97;;
18360;SDS011;9308;48.550;9.108;2023-07-29T10:02:36;3.67;;;3.37;;
18360;SDS011;9308;48.550;9.108;2023-07-29T10:05:03;3.90;;;2.93;;
18360;SDS011;9308;48.550;9.108;2023-07-29T10:07:30;2.93;;;2.73;;
18360;SDS011;9308;48.550;9.108;2023-07-29T10:09:57;3.10;;;2.90;;
18360;SDS011;9308;48.550;9.108;2023-07-29T10:12:22;3.07;;;2.60;;
18360;SDS011;9308;48.550;9.108;2023-07-29T10:14:49;3.03;;;2.83;;
18360;SDS011;9308;48.550;9.108;2023-07-29T10:17:15;2.90;;;2.70;;
18360;SDS011;9308;48.550;9.108;2023-07-29T10:19:41;3.10;;;2.43;;
18360;SDS011;9308;48.550;9.108;2023-07-29T10:22:08;2.80;;;2.60;;
18360;SDS011;9308;48.550;9.108;2023-07-29T10:24:35;2.73;;;2.50;;
18360;SDS011;9308;48.550;9.108;2023-07-29T10:27:06;2.67;;;2.47;;
18360;SDS011;9308;48.550;9.108;2023-07-29T10:29:34;3.27;;;2.97;;
18360;SDS011;9308;48.550;9.108;2023-07-29T10:32:03;2.97;;;2.47;;
18360;SDS011;9308;48.550;9.108;2023-07-29T10:34:30;3.03;;;2.83;;
18360;SDS011;9308;48.550;9.108;2023-07-29T10:36:56;2.93;;;2.70;;
18360;SDS011;9308;48.550;9.108;2023-07-29T10:39:24;2.70;;;2.60;;
18360;SDS011;9308;48.550;9.108;2023-07-29T10:41:57;2.77;;;2.57;;
18360;SDS011;9308;48.550;9.108;2023-07-29T10:47:11;3.23;;;3.00;;
18360;SDS011;9308;48.550;9.108;2023-07-29T10:49:48;3.00;;;2.80;;
18360;SDS011;9308;48.550;9.108;2023-07-29T10:52:16;3.20;;;2.50;;
18360;SDS011;9308;48.550;9.108;2023-07-29T10:54:45;3.50;;;3.23;;
18360;SDS011;9308;48.550;9.108;2023-07-29T10:57:15;4.20;;;2.90;;
18360;SDS011;9308;48.550;9.108;2023-07-29T10:59:55;2.90;;;2.70;;
18360;SDS011;9308;48.550;9.108;2023-07-29T11:02:22;2.90;;;2.70;;
18360;SDS011;9308;48.550;9.108;2023-07-29T11:04:54;2.73;;;2.53;;
18360;SDS011;9308;48.550;9.108;2023-07-29T11:07:20;2.50;;;2.30;;
18360;SDS011;9308;48.550;9.108;2023-07-29T11:09:53;3.00;;;2.80;;
18360;SDS011;9308;48.550;9.108;2023-07-29T11:17:38;3.20;;;2.60;;
18360;SDS011;9308;48.550;9.108;2023-07-29T11:20:05;3.13;;;2.93;;
18360;SDS011;9308;48.550;9.108;2023-07-29T11:22:35;2.90;;;2.70;;
18360;SDS011;9308;48.550;9.108;2023-07-29T11:25:01;2.60;;;2.40;;
18360;SDS011;9308;48.550;9.108;2023-07-29T11:27:27;2.50;;;2.40;;
18360;SDS011;9308;48.550;9.108;2023-07-29T11:30:00;2.50;;;2.10;;
18360;SDS011;9308;48.550;9.108;2023-07-29T11:32:26;3.50;;;2.50;;
18360;SDS011;9308;48.550;9.108;2023-07-29T11:34:52;2.60;;;2.50;;
18360;SDS011;9308;48.550;9.108;2023-07-29T11:37:17;2.77;;;2.57;;
18360;SDS011;9308;48.550;9.108;2023-07-29T11:39:43;2.30;;;2.20;;
18360;SDS011;9308;48.550;9.108;2023-07-29T11:42:14;2.60;;;2.40;;
18360;SDS011;9308;48.550;9.108;2023-07-29T11:44:40;2.80;;;2.60;;
18360;SDS011;9308;48.550;9.108;2023-07-29T11:47:09;3.43;;;3.13;;
18360;SDS011;9308;48.550;9.108;2023-07-29T11:49:37;2.57;;;2.37;;
18360;SDS011;9308;48.550;9.108;2023-07-29T11:52:06;2.60;;;2.40;;
18360;SDS011;9308;48.550;9.108;2023-07-29T11:54:33;2.63;;;2.43;;
18360;SDS011;9308;48.550;9.108;2023-07-29T11:57:00;3.60;;;2.60;;
18360;SDS011;9308;48.550;9.108;2023-07-29T11:59:27;2.70;;;2.50;;
18360;SDS011;9308;48.550;9.108;2023-07-29T12:01:53;3.07;;;2.77;;
18360;SDS011;9308;48.550;9.108;2023-07-29T12:04:18;2.00;;;1.90;;
18360;SDS011;9308;48.550;9.108;2023-07-29T12:06:44;2.50;;;2.30;;
18360;SDS011;9308;48.550;9.108;2023-07-29T12:09:09;3.03;;;2.80;;
18360;SDS011;9308;48.550;9.108;2023-07-29T12:11:35;2.70;;;2.50;;
18360;SDS011;9308;48.550;9.108;2023-07-29T12:14:01;2.57;;;2.37;;
18360;SDS011;9308;48.550;9.108;2023-07-29T12:16:26;3.03;;;2.83;;
18360;SDS011;9308;48.550;9.108;2023-07-29T12:18:52;2.83;;;2.63;;
18360;SDS011;9308;48.550;9.108;2023-07-29T12:21:18;2.70;;;2.50;;
18360;SDS011;9308;48.550;9.108;2023-07-29T12:23:44;2.97;;;2.63;;
18360;SDS011;9308;48.550;9.108;2023-07-29T12:26:10;3.07;;;2.87;;
18360;SDS011;9308;48.550;9.108;2023-07-29T12:28:35;2.63;;;2.43;;
18360;SDS011;9308;48.550;9.108;2023-07-29T12:31:01;3.13;;;2.83;;
18360;SDS011;9308;48.550;9.108;2023-07-29T12:33:35;2.70;;;2.50;;
18360;SDS011;9308;48.550;9.108;2023-07-29T12:36:07;2.60;;;2.47;;
18360;SDS011;9308;48.550;9.108;2023-07-29T12:38:32;2.70;;;2.50;;
18360;SDS011;9308;48.550;9.108;2023-07-29T12:40:58;2.40;;;2.20;;
18360;SDS011;9308;48.550;9.108;2023-07-29T12:43:24;3.20;;;2.50;;
18360;SDS011;9308;48.550;9.108;2023-07-29T12:45:50;3.93;;;2.60;;
18360;SDS011;9308;48.550;9.108;2023-07-29T12:48:16;2.70;;;2.50;;
18360;SDS011;9308;48.550;9.108;2023-07-29T12:50:42;2.80;;;2.60;;
18360;SDS011;9308;48.550;9.108;2023-07-29T12:53:08;2.93;;;2.63;;
18360;SDS011;9308;48.550;9.108;2023-07-29T12:55:35;2.77;;;2.57;;
18360;SDS011;9308;48.550;9.108;2023-07-29T12:58:01;2.80;;;2.60;;
18360;SDS011;9308;48.550;9.108;2023-07-29T13:00:27;3.00;;;2.80;;
18360;SDS011;9308;48.550;9.108;2023-07-29T13:02:52;2.67;;;2.47;;
18360;SDS011;9308;48.550;9.108;2023-07-29T13:05:18;2.80;;;2.60;;
18360;SDS011;9308;48.550;9.108;2023-07-29T13:07:43;2.93;;;2.63;;
18360;SDS011;9308;48.550;9.108;2023-07-29T13:10:09;2.67;;;2.47;;
18360;SDS011;9308;48.550;9.108;2023-07-29T13:12:35;2.33;;;2.20;;
18360;SDS011;9308;48.550;9.108;2023-07-29T13:15:01;3.03;;;2.60;;
18360;SDS011;9308;48.550;9.108;2023-07-29T13:17:27;2.40;;;2.20;;
18360;SDS011;9308;48.550;9.108;2023-07-29T13:19:52;2.37;;;2.17;;
18360;SDS011;9308;48.550;9.108;2023-07-29T13:22:19;2.60;;;2.40;;
18360;SDS011;9308;48.550;9.108;2023-07-29T13:24:45;2.63;;;2.30;;
18360;SDS011;9308;48.550;9.108;2023-07-29T13:27:10;2.10;;;2.00;;
18360;SDS011;9308;48.550;9.108;2023-07-29T13:29:36;2.27;;;2.10;;
18360;SDS011;9308;48.550;9.108;2023-07-29T13:32:02;2.50;;;2.30;;
18360;SDS011;9308;48.550;9.108;2023-07-29T13:34:27;3.50;;;2.90;;
18360;SDS011;9308;48.550;9.108;2023-07-29T13:36:53;2.07;;;1.97;;
18360;SDS011;9308;48.550;9.108;2023-07-29T13:39:18;2.00;;;1.90;;
18360;SDS011;9308;48.550;9.108;2023-07-29T13:41:44;2.60;;;2.40;;
18360;SDS011;9308;48.550;9.108;2023-07-29T13:44:09;2.60;;;2.40;;
18360;SDS011;9308;48.550;9.108;2023-07-29T13:46:35;2.53;;;2.33;;
18360;SDS011;9308;48.550;9.108;2023-07-29T13:49:00;2.63;;;2.43;;
18360;SDS011;9308;48.550;9.108;2023-07-29T13:51:27;2.70;;;2.40;;
18360;SDS011;9308;48.550;9.108;2023-07-29T13:53:52;2.50;;;2.30;;
18360;SDS011;9308;48.550;9.108;2023-07-29T13:56:17;2.43;;;2.23;;
18360;SDS011;9308;48.550;9.108;2023-07-29T13:58:43;4.43;;;2.43;;
18360;SDS011;9308;48.550;9.108;2023-07-29T14:01:08;2.40;;;2.20;;
18360;SDS011;9308;48.550;9.108;2023-07-29T14:03:34;2.60;;;2.40;;
18360;SDS011;9308;48.550;9.108;2023-07-29T14:05:59;3.20;;;2.40;;
18360;SDS011;9308;48.550;9.108;2023-07-29T14:08:25;2.17;;;2.03;;
18360;SDS011;9308;48.550;9.108;2023-07-29T14:10:50;2.37;;;2.17;;
18360;SDS011;9308;48.550;9.108;2023-07-29T14:13:15;2.60;;;2.40;;
18360;SDS011;9308;48.550;9.108;2023-07-29T14:15:41;2.50;;;2.30;;
18360;SDS011;9308;48.550;9.108;2023-07-29T14:18:06;2.60;;;2.40;;
18360;SDS011;9308;48.550;9.108;2023-07-29T14:20:32;2.40;;;2.30;;
18360;SDS011;9308;48.550;9.108;2023-07-29T14:22:58;2.60;;;2.40;;
18360;SDS011;9308;48.550;9.108;2023-07-29T14:25:23;2.60;;;2.40;;
18360;SDS011;9308;48.550;9.108;2023-07-29T14:27:49;2.70;;;2.47;;
18360;SDS011;9308;48.550;9.108;2023-07-29T14:30:14;2.43;;;2.23;;
18360;SDS011;9308;48.550;9.108;2023-07-29T14:32:40;2.70;;;2.50;;
18360;SDS011;9308;48.550;9.108;2023-07-29T14:35:05;2.93;;;2.73;;
18360;SDS011;9308;48.550;9.108;2023-07-29T14:37:32;2.80;;;2.60;;
18360;SDS011;9308;48.550;9.108;2023-07-29T14:39:59;2.70;;;2.50;;
18360;SDS011;9308;48.550;9.108;2023-07-29T14:42:24;2.87;;;2.60;;
18360;SDS011;9308;48.550;9.108;2023-07-29T14:44:50;2.80;;;2.60;;
18360;SDS011;9308;48.550;9.108;2023-07-29T14:47:16;2.60;;;2.40;;
18360;SDS011;9308;48.550;9.108;2023-07-29T14:49:41;2.70;;;2.50;;
18360;SDS011;9308;48.550;9.108;2023-07-29T14:52:07;2.60;;;2.40;;
18360;SDS011;9308;48.550;9.108;2023-07-29T14:54:32;2.43;;;2.23;;
18360;SDS011;9308;48.550;9.108;2023-07-29T14:56:58;2.70;;;2.50;;
18360;SDS011;9308;48.550;9.108;2023-07-29T14:59:23;2.53;;;2.33;;
18360;SDS011;9308;48.550;9.108;2023-07-29T15:01:49;2.60;;;2.40;;
18360;SDS011;9308;48.550;9.108;2023-07-29T15:04:14;2.70;;;2.40;;
18360;SDS011;9308;48.550;9.108;2023-07-29T15:06:40;3.53;;;2.70;;
18360;SDS011;9308;48.550;9.108;2023-07-29T15:09:05;2.80;;;2.60;;
18360;SDS011;9308;48.550;9.108;2023-07-29T15:11:31;4.30;;;2.90;;
18360;SDS011;9308;48.550;9.108;2023-07-29T15:14:00;2.20;;;2.00;;
18360;SDS011;9308;48.550;9.108;2023-07-29T15:16:25;3.77;;;2.40;;